createdAt,value
2022-10-31T00:01:43.342Z,8.57
2022-10-31T00:04:11.226Z,14.03
2022-10-31T00:06:39.086Z,13.53
2022-10-31T00:09:07.565Z,10.50
2022-10-31T00:11:35.432Z,11.23
2022-10-31T00:14:05.058Z,13.60
2022-10-31T00:16:33.266Z,14.13
2022-10-31T00:19:02.695Z,11.50
2022-10-31T00:21:31.355Z,7.97
2022-10-31T00:23:59.729Z,10.00
2022-10-31T00:26:28.988Z,9.57
2022-10-31T00:28:56.919Z,9.27
2022-10-31T00:31:26.142Z,8.87
2022-10-31T00:33:54.035Z,14.40
2022-10-31T00:36:22.225Z,7.97
2022-10-31T00:38:50.487Z,8.33
2022-10-31T00:41:19.495Z,10.73
2022-10-31T00:43:47.349Z,7.17
2022-10-31T00:46:15.996Z,4.23
2022-10-31T00:48:45.380Z,5.97
2022-10-31T00:51:13.239Z,6.93
2022-10-31T00:53:41.113Z,5.17
2022-10-31T00:56:09.120Z,5.00
2022-10-31T00:58:37.058Z,5.30
2022-10-31T01:01:05.654Z,3.90
2022-10-31T01:03:35.265Z,3.30
2022-10-31T01:06:06.450Z,4.50
2022-10-31T01:08:34.825Z,5.70
2022-10-31T01:11:09.342Z,5.80
2022-10-31T01:13:37.661Z,3.90
2022-10-31T01:16:07.987Z,5.03
2022-10-31T01:18:36.344Z,5.53
2022-10-31T01:21:07.554Z,3.73
2022-10-31T01:23:36.248Z,5.27
2022-10-31T01:26:08.387Z,11.53
2022-10-31T01:28:37.606Z,8.83
2022-10-31T01:31:08.638Z,4.70
2022-10-31T01:33:36.861Z,5.30
2022-10-31T01:36:18.838Z,8.10
2022-10-31T01:38:47.345Z,5.27
2022-10-31T01:41:17.154Z,5.77
2022-10-31T01:43:51.355Z,7.90
2022-10-31T01:46:24.053Z,5.80
2022-10-31T01:48:53.391Z,6.90
2022-10-31T01:51:25.434Z,7.90
2022-10-31T01:53:56.283Z,5.17
2022-10-31T01:56:24.418Z,5.67
2022-10-31T01:58:53.169Z,8.40
2022-10-31T02:01:21.303Z,6.73
2022-10-31T02:03:49.871Z,11.73
2022-10-31T02:06:28.697Z,6.70
2022-10-31T02:08:59.060Z,6.07
2022-10-31T02:11:27.889Z,7.03
2022-10-31T02:13:56.522Z,7.67
2022-10-31T02:16:24.336Z,7.10
2022-10-31T02:18:52.211Z,5.23
2022-10-31T02:21:26.632Z,7.10
2022-10-31T02:24:27.969Z,7.03
2022-10-31T02:27:13.154Z,5.33
2022-10-31T02:30:06.446Z,4.23
2022-10-31T02:33:08.021Z,7.27
2022-10-31T02:35:44.486Z,7.43
2022-10-31T02:38:24.638Z,6.97
2022-10-31T02:41:01.456Z,7.80
2022-10-31T02:43:34.503Z,5.40
2022-10-31T02:46:09.263Z,6.70
2022-10-31T02:48:41.840Z,6.53
2022-10-31T02:51:12.007Z,5.63
2022-10-31T02:53:40.582Z,5.57
2022-10-31T02:56:13.946Z,4.77
2022-10-31T02:58:47.160Z,5.23
2022-10-31T03:01:35.814Z,6.10
2022-10-31T03:04:25.682Z,7.30
2022-10-31T03:07:00.300Z,4.50
2022-10-31T03:09:32.088Z,4.83
2022-10-31T03:12:05.214Z,4.73
2022-10-31T03:14:42.942Z,6.87
2022-10-31T03:17:16.358Z,7.33
2022-10-31T03:19:49.362Z,6.60
2022-10-31T03:22:21.284Z,4.97
2022-10-31T03:24:50.809Z,3.50
2022-10-31T03:27:22.257Z,5.43
2022-10-31T03:29:52.545Z,15.00
2022-10-31T03:32:24.373Z,4.77
2022-10-31T03:34:58.053Z,4.20
2022-10-31T03:37:29.052Z,7.27
2022-10-31T03:40:00.108Z,5.07
2022-10-31T03:42:32.145Z,8.43
2022-10-31T03:45:03.979Z,4.90
2022-10-31T03:47:32.355Z,4.37
2022-10-31T03:50:01.878Z,5.53
2022-10-31T03:52:34.102Z,5.10
2022-10-31T03:55:11.136Z,6.23
2022-10-31T03:57:45.488Z,8.30
2022-10-31T04:00:16.399Z,6.03
2022-10-31T04:02:49.678Z,5.13
2022-10-31T04:05:20.555Z,5.77
2022-10-31T04:07:52.518Z,4.90
2022-10-31T04:10:21.824Z,5.70
2022-10-31T04:12:54.249Z,7.00
2022-10-31T04:15:24.541Z,6.07
2022-10-31T04:17:55.528Z,10.13
2022-10-31T04:20:34.005Z,5.73
2022-10-31T04:23:02.440Z,5.57
2022-10-31T04:25:30.337Z,4.83
2022-10-31T04:27:58.456Z,8.10
2022-10-31T04:30:26.545Z,6.70
2022-10-31T04:32:54.394Z,6.47
2022-10-31T04:35:22.246Z,4.97
2022-10-31T04:37:51.398Z,5.43
2022-10-31T04:40:19.194Z,3.97
2022-10-31T04:42:47.014Z,6.63
2022-10-31T04:45:18.381Z,6.30
2022-10-31T04:47:48.989Z,4.90
2022-10-31T04:50:17.421Z,7.70
2022-10-31T04:52:46.730Z,4.97
2022-10-31T04:55:16.596Z,5.73
2022-10-31T04:57:44.769Z,7.30
2022-10-31T05:00:14.972Z,4.77
2022-10-31T05:02:46.132Z,5.03
2022-10-31T05:05:14.482Z,4.20
2022-10-31T05:07:43.420Z,6.53
2022-10-31T05:10:12.589Z,5.57
2022-10-31T05:12:48.071Z,4.83
2022-10-31T05:15:16.262Z,8.20
2022-10-31T05:17:44.217Z,6.23
2022-10-31T05:20:12.932Z,8.40
2022-10-31T05:22:45.411Z,6.10
2022-10-31T05:25:13.863Z,7.90
2022-10-31T05:27:43.838Z,5.70
2022-10-31T05:30:13.567Z,5.60
2022-10-31T05:32:42.096Z,4.87
2022-10-31T05:35:11.227Z,7.67
2022-10-31T05:37:39.675Z,7.23
2022-10-31T05:40:10.037Z,8.77
2022-10-31T05:42:39.931Z,6.53
2022-10-31T05:45:10.291Z,6.90
2022-10-31T05:47:38.199Z,8.50
2022-10-31T05:50:07.014Z,7.10
2022-10-31T05:52:35.199Z,9.60
2022-10-31T05:55:03.092Z,9.70
2022-10-31T05:57:35.427Z,6.00
2022-10-31T06:00:03.442Z,6.03
2022-10-31T06:02:35.309Z,7.87
2022-10-31T06:05:03.276Z,6.23
2022-10-31T06:07:35.010Z,6.70
2022-10-31T06:10:04.010Z,8.20
2022-10-31T06:12:31.871Z,10.83
2022-10-31T06:14:59.705Z,7.67
2022-10-31T06:17:27.536Z,7.63
2022-10-31T06:19:56.720Z,10.60
2022-10-31T06:22:24.626Z,8.07
2022-10-31T06:24:52.522Z,8.07
2022-10-31T06:27:20.477Z,6.33
2022-10-31T06:29:48.362Z,7.80
2022-10-31T06:32:16.543Z,8.00
2022-10-31T06:34:45.050Z,7.23
2022-10-31T06:37:14.557Z,6.20
2022-10-31T06:39:42.409Z,7.47
2022-10-31T06:42:10.251Z,8.10
2022-10-31T06:44:38.132Z,5.87
2022-10-31T06:47:07.443Z,9.60
2022-10-31T06:49:35.567Z,6.40
2022-10-31T06:52:03.609Z,8.40
2022-10-31T06:54:32.952Z,9.00
2022-10-31T06:57:00.802Z,7.10
2022-10-31T06:59:29.201Z,10.60
2022-10-31T07:01:57.195Z,6.87
2022-10-31T07:04:25.374Z,6.20
2022-10-31T07:06:53.516Z,9.27
2022-10-31T07:09:21.657Z,9.50
2022-10-31T07:11:53.607Z,12.53
2022-10-31T07:14:21.528Z,9.03
2022-10-31T07:16:51.182Z,10.67
2022-10-31T07:19:19.298Z,8.70
2022-10-31T07:21:47.152Z,9.00
2022-10-31T07:24:14.991Z,10.33
2022-10-31T07:26:43.279Z,7.90
2022-10-31T07:29:12.552Z,7.53
2022-10-31T07:31:40.761Z,7.00
2022-10-31T07:34:08.691Z,7.47
2022-10-31T07:36:36.579Z,6.80
2022-10-31T07:39:04.648Z,10.00
2022-10-31T07:41:32.478Z,6.83
2022-10-31T07:44:00.314Z,11.67
2022-10-31T07:46:29.517Z,15.90
2022-10-31T07:48:57.347Z,10.67
2022-10-31T07:51:25.249Z,14.70
2022-10-31T07:53:53.106Z,11.23
2022-10-31T07:56:20.933Z,7.87
2022-10-31T07:58:48.813Z,10.07
2022-10-31T08:01:16.710Z,9.60
2022-10-31T08:03:45.916Z,11.30
2022-10-31T08:06:13.771Z,8.63
2022-10-31T08:08:41.563Z,10.17
2022-10-31T08:11:09.374Z,8.87
2022-10-31T08:13:37.187Z,8.97
2022-10-31T08:16:05.766Z,7.20
2022-10-31T08:18:33.613Z,8.90
2022-10-31T08:21:02.803Z,9.73
2022-10-31T08:23:30.666Z,11.33
2022-10-31T08:25:59.614Z,6.43
2022-10-31T08:28:27.744Z,9.13
2022-10-31T08:30:55.558Z,9.23
2022-10-31T08:33:23.369Z,9.67
2022-10-31T08:35:51.226Z,6.17
2022-10-31T08:38:20.412Z,7.13
2022-10-31T08:40:50.627Z,10.93
2022-10-31T08:43:19.950Z,7.23
2022-10-31T08:45:51.098Z,9.00
2022-10-31T08:48:19.465Z,8.77
2022-10-31T08:50:47.657Z,6.17
2022-10-31T08:53:17.203Z,9.63
2022-10-31T08:55:47.920Z,8.33
2022-10-31T08:58:17.400Z,11.40
2022-10-31T09:00:46.188Z,15.30
2022-10-31T09:03:16.049Z,12.00
2022-10-31T09:05:44.282Z,7.23
2022-10-31T09:08:16.368Z,12.03
2022-10-31T09:10:46.817Z,8.87
2022-10-31T09:13:16.404Z,13.27
2022-10-31T09:15:45.988Z,11.50
2022-10-31T09:18:14.810Z,8.77
2022-10-31T09:20:44.108Z,8.40
2022-10-31T09:23:14.039Z,9.43
2022-10-31T09:25:46.165Z,9.90
2022-10-31T09:28:21.451Z,7.87
2022-10-31T09:30:50.386Z,8.83
2022-10-31T09:33:18.660Z,9.93
2022-10-31T09:35:46.904Z,6.13
2022-10-31T09:38:16.564Z,7.77
2022-10-31T09:40:45.977Z,8.53
2022-10-31T09:43:21.125Z,8.60
2022-10-31T09:45:58.039Z,6.83
2022-10-31T09:48:48.596Z,7.70
2022-10-31T09:51:20.839Z,8.80
2022-10-31T09:53:52.213Z,8.63
2022-10-31T09:56:22.250Z,10.53
2022-10-31T09:58:54.862Z,11.77
2022-10-31T10:01:34.844Z,10.87
2022-10-31T10:04:13.796Z,11.30
2022-10-31T10:06:48.517Z,14.40
2022-10-31T10:09:16.497Z,8.90
2022-10-31T10:11:56.862Z,12.00
2022-10-31T10:14:40.318Z,9.90
2022-10-31T10:17:20.629Z,10.20
2022-10-31T10:20:26.686Z,10.63
2022-10-31T10:23:05.515Z,10.13
2022-10-31T10:25:40.535Z,10.60
2022-10-31T10:28:18.795Z,10.40
2022-10-31T10:30:52.108Z,9.53
2022-10-31T10:33:24.343Z,12.87
2022-10-31T10:35:55.339Z,9.47
2022-10-31T10:38:29.437Z,9.30
2022-10-31T10:40:57.544Z,11.27
2022-10-31T10:43:31.558Z,12.83
2022-10-31T10:46:33.942Z,9.63
2022-10-31T10:49:12.003Z,8.50
2022-10-31T10:54:47.753Z,10.13
2022-10-31T10:57:25.015Z,10.93
2022-10-31T10:59:53.730Z,17.20
2022-10-31T11:02:29.035Z,11.90
2022-10-31T11:04:59.143Z,9.03
2022-10-31T11:07:27.118Z,7.80
2022-10-31T11:10:05.844Z,13.37
2022-10-31T11:12:35.495Z,12.50
2022-10-31T11:15:10.063Z,15.73
2022-10-31T11:17:41.958Z,14.93
2022-10-31T11:20:31.290Z,12.20
2022-10-31T11:23:19.823Z,10.50
2022-10-31T11:25:52.678Z,11.30
2022-10-31T11:28:20.499Z,9.40
2022-10-31T11:30:51.798Z,10.27
2022-10-31T11:33:30.406Z,13.63
2022-10-31T11:35:59.372Z,10.80
2022-10-31T11:38:33.462Z,11.77
2022-10-31T11:41:11.646Z,9.67
2022-10-31T11:43:41.024Z,14.07
2022-10-31T11:46:13.519Z,12.20
2022-10-31T11:48:49.400Z,8.00
2022-10-31T11:51:23.100Z,11.80
2022-10-31T11:53:56.946Z,9.97
2022-10-31T11:56:28.838Z,9.00
2022-10-31T11:58:58.306Z,11.93
2022-10-31T12:01:28.396Z,15.60
2022-10-31T12:04:08.234Z,9.63
2022-10-31T12:06:38.158Z,14.63
2022-10-31T12:09:19.440Z,12.10
2022-10-31T12:12:07.925Z,11.57
2022-10-31T12:14:44.526Z,10.10
2022-10-31T12:17:17.834Z,12.37
2022-10-31T12:19:56.190Z,8.80
2022-10-31T12:22:35.186Z,10.60
2022-10-31T12:25:30.678Z,9.77
2022-10-31T12:28:09.879Z,10.33
2022-10-31T12:30:51.091Z,9.93
2022-10-31T12:33:36.518Z,12.87
2022-10-31T12:36:42.747Z,9.40
2022-10-31T12:39:33.416Z,9.30
2022-10-31T12:42:10.221Z,6.70
2022-10-31T12:45:00.745Z,8.07
2022-10-31T12:47:49.609Z,6.47
2022-10-31T12:50:31.097Z,6.83
2022-10-31T12:53:11.078Z,9.73
2022-10-31T12:55:52.556Z,8.27
2022-10-31T12:58:26.528Z,9.50
2022-10-31T13:01:06.509Z,8.30
2022-10-31T13:03:44.525Z,6.30
2022-10-31T13:06:21.123Z,8.57
2022-10-31T13:08:54.405Z,10.07
2022-10-31T13:11:26.568Z,10.97
2022-10-31T13:14:02.042Z,11.83
2022-10-31T13:16:34.860Z,8.43
2022-10-31T13:19:10.795Z,10.37
2022-10-31T13:21:43.090Z,9.60
2022-10-31T13:24:18.086Z,8.90
2022-10-31T13:26:50.085Z,10.13
2022-10-31T13:29:26.906Z,9.27
2022-10-31T13:31:58.046Z,7.93
2022-10-31T13:34:29.184Z,7.40
2022-10-31T13:37:11.919Z,10.67
2022-10-31T13:39:53.118Z,10.50
2022-10-31T13:42:26.014Z,6.83
2022-10-31T13:44:53.845Z,9.73
2022-10-31T13:47:28.496Z,15.23
2022-10-31T13:50:08.029Z,13.90
2022-10-31T13:52:35.891Z,6.33
2022-10-31T13:55:05.316Z,9.47
2022-10-31T13:57:36.890Z,8.23
2022-10-31T14:00:08.665Z,8.90
2022-10-31T14:02:37.999Z,10.40
2022-10-31T14:05:20.498Z,8.70
2022-10-31T14:07:49.060Z,13.03
2022-10-31T14:10:27.647Z,9.53
2022-10-31T14:13:04.331Z,8.93
2022-10-31T14:15:32.767Z,10.20
2022-10-31T14:18:03.319Z,11.17
2022-10-31T14:20:38.537Z,14.47
2022-10-31T14:23:36.503Z,8.50
2022-10-31T14:26:34.653Z,12.13
2022-10-31T14:29:04.183Z,11.93
2022-10-31T14:31:37.075Z,10.50
2022-10-31T14:34:24.207Z,11.77
2022-10-31T14:37:03.098Z,7.30
2022-10-31T14:39:35.200Z,9.23
2022-10-31T14:42:21.713Z,10.27
2022-10-31T14:45:08.002Z,8.07
2022-10-31T14:47:47.568Z,8.67
2022-10-31T14:50:25.102Z,11.23
2022-10-31T14:52:56.800Z,12.70
2022-10-31T14:55:26.385Z,9.60
2022-10-31T14:58:00.425Z,10.83
2022-10-31T15:00:29.968Z,7.60
2022-10-31T15:03:09.944Z,12.10
2022-10-31T15:05:45.649Z,9.07
2022-10-31T15:08:28.693Z,11.23
2022-10-31T15:10:56.638Z,9.97
2022-10-31T15:13:25.871Z,9.50
2022-10-31T15:15:56.548Z,11.10
2022-10-31T15:18:28.440Z,9.50
2022-10-31T15:20:58.142Z,7.53
2022-10-31T15:23:27.757Z,12.90
2022-10-31T15:26:01.524Z,11.37
2022-10-31T15:28:32.150Z,11.53
2022-10-31T15:31:01.392Z,13.50
2022-10-31T15:33:37.635Z,14.43
2022-10-31T15:36:06.581Z,9.37
2022-10-31T15:38:34.761Z,12.60
2022-10-31T15:41:05.705Z,9.03
2022-10-31T15:43:38.035Z,11.17
2022-10-31T15:46:08.773Z,12.77
2022-10-31T15:48:37.881Z,12.27
2022-10-31T15:51:05.964Z,13.00
2022-10-31T15:53:39.934Z,8.17
2022-10-31T15:56:09.912Z,8.63
2022-10-31T15:58:45.553Z,12.53
2022-10-31T16:01:23.625Z,9.07
2022-10-31T16:04:02.909Z,11.60
2022-10-31T16:06:31.752Z,10.63
2022-10-31T16:08:59.706Z,10.80
2022-10-31T16:11:34.586Z,13.50
2022-10-31T16:14:08.163Z,11.50
2022-10-31T16:16:43.400Z,10.97
2022-10-31T16:19:20.555Z,11.17
2022-10-31T16:21:50.992Z,10.33
2022-10-31T16:24:22.181Z,16.47
2022-10-31T16:26:51.649Z,17.07
2022-10-31T16:29:34.497Z,11.37
2022-10-31T16:32:02.377Z,13.40
2022-10-31T16:34:30.259Z,17.07
2022-10-31T16:36:58.130Z,21.40
2022-10-31T16:39:25.946Z,17.30
2022-10-31T16:41:57.326Z,17.00
2022-10-31T16:44:26.861Z,15.70
2022-10-31T16:47:14.441Z,16.00
2022-10-31T16:49:44.276Z,14.20
2022-10-31T16:52:12.126Z,14.30
2022-10-31T16:54:40.067Z,23.80
2022-10-31T16:57:08.612Z,18.47
2022-10-31T16:59:36.726Z,16.30
2022-10-31T17:02:05.564Z,12.67
2022-10-31T17:07:08.175Z,13.50
2022-10-31T17:09:35.990Z,18.10
2022-10-31T17:12:04.955Z,17.40
2022-10-31T17:14:33.246Z,17.70
2022-10-31T17:17:01.097Z,14.57
2022-10-31T17:19:28.923Z,22.80
2022-10-31T17:21:58.287Z,18.47
2022-10-31T17:24:26.094Z,14.57
2022-10-31T17:26:53.931Z,15.50
2022-10-31T17:29:21.767Z,14.43
2022-10-31T17:31:49.612Z,15.90
2022-10-31T17:34:19.054Z,14.37
2022-10-31T17:36:52.171Z,12.60
2022-10-31T17:39:21.701Z,17.70
2022-10-31T17:41:51.705Z,17.60
2022-10-31T17:44:20.058Z,14.13
2022-10-31T17:46:47.907Z,11.47
2022-10-31T17:49:15.826Z,14.80
2022-10-31T17:51:43.644Z,18.80
2022-10-31T17:54:11.931Z,14.90
2022-10-31T17:56:41.109Z,12.83
2022-10-31T17:59:09.230Z,19.30
2022-10-31T18:01:37.335Z,18.27
2022-10-31T18:04:05.494Z,14.37
2022-10-31T18:06:33.342Z,21.87
2022-10-31T18:09:04.174Z,22.80
2022-10-31T18:11:32.262Z,16.57
2022-10-31T18:14:01.941Z,15.90
2022-10-31T18:16:29.777Z,18.37
2022-10-31T18:19:01.668Z,23.30
2022-10-31T18:21:29.674Z,18.67
2022-10-31T18:23:58.616Z,17.20
2022-10-31T18:26:27.931Z,19.97
2022-10-31T18:28:56.242Z,16.77
2022-10-31T18:31:25.718Z,14.93
2022-10-31T18:33:54.410Z,13.53
2022-10-31T18:36:22.803Z,13.80
2022-10-31T18:38:50.787Z,17.30
2022-10-31T18:41:18.616Z,12.30
2022-10-31T18:43:46.485Z,12.90
2022-10-31T18:46:16.310Z,11.50
2022-10-31T18:48:46.388Z,17.63
2022-10-31T18:51:18.003Z,12.37
2022-10-31T18:53:51.699Z,17.20
2022-10-31T18:56:19.799Z,11.40
2022-10-31T18:58:47.968Z,12.70
2022-10-31T19:01:16.853Z,13.10
2022-10-31T19:03:46.231Z,13.53
2022-10-31T19:06:14.079Z,16.10
2022-10-31T19:08:41.884Z,18.83
2022-10-31T19:11:11.943Z,17.93
2022-10-31T19:13:40.852Z,23.80
2022-10-31T19:16:10.656Z,20.07
2022-10-31T19:18:39.183Z,21.70
2022-10-31T19:21:09.923Z,16.43
2022-10-31T19:23:38.062Z,12.87
2022-10-31T19:26:06.294Z,14.80
2022-10-31T19:28:35.962Z,16.40
2022-10-31T19:31:04.030Z,18.23
2022-10-31T19:33:35.853Z,14.70
2022-10-31T19:36:08.236Z,18.10
2022-10-31T19:38:38.506Z,12.20
2022-10-31T19:41:08.290Z,14.83
2022-10-31T19:43:36.347Z,13.80
2022-10-31T19:46:06.090Z,9.50
2022-10-31T19:48:37.161Z,11.20
2022-10-31T19:51:07.142Z,10.57
2022-10-31T19:53:35.374Z,10.63
2022-10-31T19:56:05.340Z,10.73
2022-10-31T19:58:33.540Z,14.27
2022-10-31T20:01:01.392Z,12.37
2022-10-31T20:03:29.273Z,10.87
2022-10-31T20:05:57.159Z,12.33
2022-10-31T20:08:25.017Z,10.50
2022-10-31T20:10:56.832Z,14.33
2022-10-31T20:13:26.402Z,11.70
2022-10-31T20:15:58.808Z,11.60
2022-10-31T20:18:26.728Z,9.00
2022-10-31T20:20:54.644Z,10.57
2022-10-31T20:23:22.494Z,11.40
2022-10-31T20:25:50.654Z,8.43
2022-10-31T20:28:18.769Z,13.50
2022-10-31T20:30:47.991Z,10.17
2022-10-31T20:33:15.858Z,9.10
2022-10-31T20:35:43.977Z,11.10
2022-10-31T20:38:11.977Z,12.57
2022-10-31T20:40:40.057Z,8.47
2022-10-31T20:43:07.999Z,10.43
2022-10-31T20:45:36.678Z,8.80
2022-10-31T20:48:06.032Z,11.93
2022-10-31T20:50:33.894Z,13.53
2022-10-31T20:53:02.421Z,10.60
2022-10-31T20:55:30.434Z,9.57
2022-10-31T20:57:58.691Z,9.80
2022-10-31T21:00:26.512Z,10.23
2022-10-31T21:02:54.361Z,11.23
2022-10-31T21:05:23.951Z,9.50
2022-10-31T21:10:24.549Z,11.03
2022-10-31T21:12:52.455Z,10.70
2022-10-31T21:15:20.438Z,7.47
2022-10-31T21:17:48.274Z,7.97
2022-10-31T21:20:16.485Z,7.60
2022-10-31T21:22:45.702Z,10.87
2022-10-31T21:25:13.574Z,9.30
2022-10-31T21:27:43.026Z,12.97
2022-10-31T21:30:11.320Z,11.00
2022-10-31T21:32:39.167Z,8.50
2022-10-31T21:35:07.673Z,13.57
2022-10-31T21:37:35.593Z,8.67
2022-10-31T21:40:05.143Z,12.57
2022-10-31T21:42:32.953Z,8.30
2022-10-31T21:45:00.754Z,11.40
2022-10-31T21:47:28.727Z,11.43
2022-10-31T21:49:57.114Z,12.30
2022-10-31T21:52:24.976Z,11.13
2022-10-31T21:54:51.822Z,8.90
2022-10-31T21:59:50.215Z,11.90
2022-10-31T22:02:20.425Z,8.93
2022-10-31T22:04:50.264Z,11.10
2022-10-31T22:07:18.350Z,13.90
2022-10-31T22:09:47.352Z,12.40
2022-10-31T22:12:15.739Z,10.80
2022-10-31T22:14:44.940Z,9.13
2022-10-31T22:17:12.788Z,11.10
2022-10-31T22:19:40.724Z,8.37
2022-10-31T22:22:08.642Z,9.07
2022-10-31T22:24:36.477Z,7.93
2022-10-31T22:27:04.339Z,8.40
2022-10-31T22:29:32.260Z,8.40
2022-10-31T22:32:02.121Z,7.33
2022-10-31T22:34:30.124Z,10.50
2022-10-31T22:36:57.951Z,8.83
2022-10-31T22:39:25.768Z,7.50
2022-10-31T22:41:53.598Z,10.67
2022-10-31T22:44:21.453Z,11.83
2022-10-31T22:46:49.312Z,10.03
2022-10-31T22:49:18.503Z,7.60
2022-10-31T22:51:46.582Z,10.20
2022-10-31T22:54:16.310Z,10.53
2022-10-31T22:56:44.595Z,10.30
2022-10-31T22:59:14.159Z,7.60
2022-10-31T23:01:44.723Z,7.63
2022-10-31T23:04:13.429Z,6.20
2022-10-31T23:06:42.931Z,10.53
2022-10-31T23:09:15.770Z,9.03
2022-10-31T23:11:44.024Z,8.10
2022-10-31T23:14:13.803Z,9.00
2022-10-31T23:16:47.253Z,11.53
2022-10-31T23:19:17.453Z,11.97
2022-10-31T23:21:59.564Z,8.70
2022-10-31T23:24:32.733Z,7.97
2022-10-31T23:27:07.693Z,8.73
2022-10-31T23:29:37.620Z,8.73
2022-10-31T23:32:07.461Z,12.00
2022-10-31T23:34:35.270Z,6.27
2022-10-31T23:37:04.577Z,9.30
2022-10-31T23:39:32.420Z,10.07
2022-10-31T23:42:00.349Z,11.20
2022-10-31T23:44:28.161Z,8.57
2022-10-31T23:46:55.989Z,9.57
2022-10-31T23:49:23.828Z,7.40
2022-10-31T23:51:51.654Z,8.97
2022-10-31T23:54:20.824Z,10.70
2022-10-31T23:56:48.731Z,9.90
2022-10-31T23:59:16.659Z,8.27
